• Join FlightAware (Why Join?)
  • Login
  • US Flag 
08:58PM EDT


 

Airport Tracker/Info


-or-


 

Live Flight TrackerFlight Track Log ✈ EJM303 ✈ 29-Apr-2013 ✈ KCMH - KBED

Flight Track Log - Related Links

Times and Time Zones

All times are in EDT time to prevent confusion due to time zone crossing. See the EJM303 flight status page for this flight to view local times or setup timezone preferences in your user account.

Time Position Orientation Groundspeed Altitude Reporting Facility
EDT Latitude Longitude Course Direction KTS MPH feet Rate Location/Type
02:11PM 40.0042 -82.9186 270° West 167 192 1,500  Level Indianapolis Center
02:12PM 40.0044 -82.9731 270° West 230 265 3,600 3,000 Climbing Indianapolis Center
02:12PM 40.0039 -83.0067 269° West 232 267 4,800 3,360 Climbing Indianapolis Center
02:14PM 40.0528 -83.0506 326° Northwest 256 295 8,400 3,240 Climbing Indianapolis Center
02:15PM 40.1061 -82.9850 43° Northeast 260 299 11,500 2,640 Climbing Indianapolis Center
02:16PM 40.1653 -82.9097 44° Northeast 292 336 13,900 2,580 Climbing Indianapolis Center
02:17PM 40.2311 -82.8294 43° Northeast 319 367 16,900 2,820 Climbing Indianapolis Center
02:18PM 40.3050 -82.7356 44° Northeast 330 380 19,800 2,460 Climbing Indianapolis Center
02:19PM 40.3772 -82.6467 43° Northeast 350 403 22,100 2,220 Climbing Indianapolis Center
02:20PM 40.4586 -82.5722 35° Northeast 361 415 24,400 2,160 Climbing Indianapolis Center
02:21PM 40.5567 -82.5281 19° North 367 422 26,600 2,340 Climbing Indianapolis Center
02:22PM 40.6556 -82.4847 18° North 369 425 29,300 1,980 Climbing Indianapolis Center
02:23PM 40.7528 -82.4400 19° North 367 422 30,800 1,980 Climbing Indianapolis Center
02:24PM 40.8500 -82.3953 19° North 365 420 33,500 2,160 Climbing Indianapolis Center
02:25PM 40.9419 -82.3536 19° North 349 402 35,300 1,200 Climbing Indianapolis Center
02:26PM 41.0400 -82.3092 19° North 353 406 36,000 300 Climbing Cleveland Center
02:27PM 41.1431 -82.2622 19° North 365 420 36,000  Level Cleveland Center
02:28PM 41.2542 -82.2128 18° North 397 457 36,000 420 Level Cleveland Center
02:29PM 41.3553 -82.1378 29° Northeast 413 475 36,900 480 Climbing Cleveland Center
02:30PM 41.4178 -81.9842 61° Northeast 407 468 37,000  Climbing Cleveland Center
02:31PM 41.4592 -81.8244 71° East 419 482 37,000  Level Cleveland Center
02:32PM 41.5025 -81.6644 70° East 446 513 37,000  Level Cleveland Center
02:33PM 41.5478 -81.5042 69° East 452 520 37,000  Level Cleveland Center
02:34PM 41.5925 -81.3467 69° East 452 520 37,000  Level Cleveland Center
02:35PM 41.6331 -81.1997 70° East 452 520 37,000  Level Cleveland Center
02:36PM 41.6756 -81.0419 70° East 459 528 37,000  Level Cleveland Center
02:37PM 41.7219 -80.8808 69° East 459 528 37,000  Level Cleveland Center
02:38PM 41.7639 -80.7250 70° East 449 517 37,000  Level Cleveland Center
02:39PM 41.8058 -80.5692 70° East 447 514 37,000  Level Cleveland Center
02:40PM 41.8494 -80.4075 70° East 447 514 37,000  Level Cleveland Center
02:41PM 41.8969 -80.2344 70° East 447 514 37,000  Level Cleveland Center
02:42PM 41.9400 -80.0750 70° East 452 520 37,000  Level Cleveland Center
02:43PM 41.9831 -79.9183 70° East 447 514 37,000  Level Cleveland Center
02:44PM 42.0258 -79.7586 70° East 447 514 37,000  Level Cleveland Center
02:45PM 42.0683 -79.5986 70° East 452 520 37,000  Level Cleveland Center
02:46PM 42.1106 -79.4356 71° East 452 520 37,000  Level Cleveland Center
02:47PM 42.1506 -79.2725 72° East 452 520 37,000  Level Cleveland Center
02:48PM 42.1903 -79.1119 71° East 452 520 37,000  Level Cleveland Center
02:49PM 42.2131 -78.9431 80° East 446 513 37,000  Level Cleveland Center
02:50PM 42.2356 -78.7717 80° East 451 519 37,000  Level Cleveland Center
02:51PM 42.2578 -78.6025 80° East 456 525 37,000  Level Cleveland Center
02:52PM 42.2775 -78.4308 81° East 456 525 37,000  Level Cleveland Center
02:53PM 42.2992 -78.2586 80° East 456 525 37,000  Level Cleveland Center
02:54PM 42.3206 -78.0839 81° East 461 531 37,000  Level Cleveland Center
02:55PM 42.3397 -77.9117 81° East 466 536 37,000  Level Cleveland Center
02:56PM 42.3625 -77.7364 80° East 466 536 37,000  Level Cleveland Center
02:57PM 42.3811 -77.5669 81° East 466 536 37,000  Level Cleveland Center
02:59PM 42.4075 -77.3339 81° East 461 531 37,000  Level Boston Center
03:00PM 42.4308 -77.1272 81° East 461 531 37,000  Level Boston Center
03:01PM 42.4481 -76.9569 82° East 461 531 37,000  Level Boston Center
03:02PM 42.4728 -76.7503 81° East 461 531 37,000  Level Boston Center
03:03PM 42.4897 -76.5797 82° East 461 531 37,000  Level Boston Center
03:04PM 42.5083 -76.4061 82° East 461 531 37,000  Level Boston Center
03:05PM 42.5272 -76.2156 82° East 461 531 37,000  Level Boston Center
03:06PM 42.5508 -76.0056 81° East 466 536 37,000  Level Boston Center
03:07PM 42.5667 -75.8317 83° East 466 536 37,000  Level Boston Center
03:08PM 42.5842 -75.6550 82° East 466 536 37,000  Level Boston Center
03:09PM 42.5994 -75.4781 83° East 466 536 37,000 -780 Level Boston Center
03:10PM 42.6186 -75.3039 81° East 466 536 35,500 -1,860 Descending Boston Center
03:11PM 42.6333 -75.1297 83° East 461 531 33,300 -2,040 Descending Boston Center
03:12PM 42.6494 -74.9667 82° East 448 516 31,500 -1,800 Descending Boston Center
03:13PM 42.6614 -74.8061 84° East 436 502 29,700 -1,260 Descending Boston Center
03:14PM 42.6772 -74.6344 83° East 442 509 29,000 -360 Descending Boston Center
03:15PM 42.6931 -74.4569 83° East 452 520 29,000  Level Boston Center
03:16PM 42.7086 -74.2794 83° East 467 537 29,000  Level Boston Center
03:17PM 42.7239 -74.0992 83° East 474 545 29,000  Level Boston Center
03:18PM 42.7367 -73.9214 84° East 479 551 29,000 -60 Level Boston Center
03:19PM 42.7411 -73.7378 88° East 479 551 28,900 -1,020 Descending Boston Center
03:20PM 42.7242 -73.5650 98° East 479 551 27,000 -1,980 Descending Boston Center
03:21PM 42.7050 -73.3894 98° East 479 551 25,000 -1,500 Descending Boston Center
03:22PM 42.6875 -73.2253 98° East 461 531 24,000 -540 Descending Boston Center
03:23PM 42.6675 -73.0528 99° East 454 522 24,000  Level Boston Center
03:24PM 42.6497 -72.8889 98° East 469 540 24,000  Level Boston Center
03:25PM 42.6294 -72.7167 99° East 469 540 24,000 -900 Level Boston Center
03:26PM 42.6131 -72.5586 98° East 452 520 22,300 -2,280 Descending Boston Center
03:27PM 42.5881 -72.3694 100° East 452 520 19,500 -3,060 Descending Boston Center
03:28PM 42.5711 -72.2569 102° East 411 473 16,200 -3,000 Descending Boston Center
03:29PM 42.5542 -72.1244 100° East 340 391 13,600 -2,340 Descending Boston Center
03:30PM 42.5433 -72.0203 98° East 310 357 11,600 -2,100 Descending Boston Center
03:31PM 42.5325 -71.8992 97° East 303 349 9,100 -2,280 Descending Boston Center
03:32PM 42.5214 -71.7781 97° East 279 321 6,600 -1,500 Descending Boston Center
03:33PM 42.5147 -71.6881 96° East 268 308 6,100 -660 Descending Boston Center
03:34PM 42.5000 -71.6000 103° East 253 291 5,400 -960 Descending KA90
03:35PM 42.5167 -71.5000 77° East 240 276 4,300 -1,020 Descending KA90
03:36PM 42.5333 -71.4167 75° East 230 265 3,300 -720 Descending KA90
03:37PM 42.5333 -71.3333 90° East 204 235 3,000 -120 Descending KA90
03:38PM 42.5333 -71.2667 90° East 203 234 3,100 -360 Climbing KA90
03:39PM 42.5167 -71.2000 109° East 151 174 2,300 -900 Descending KA90
03:40PM 42.4667 -71.2167 194° South 141 162 1,100 -960 Descending KA90
03:41PM 42.4667 -71.2667 270° West 142 163 400 9,420 Descending KA90
03:43PM 42.4347 -71.3514 243° Southwest 133 153 29,000 9,360 Climbing Boston Center
03:44PM 42.4186 -71.3939 243° Southwest 133 153 29,000  Level Boston Center
03:45PM 42.4042 -71.4364 245° Southwest 133 153 29,000  Level Boston Center
03:47PM 42.4667 -71.2833 56° Northeast  Level FlightAware Approximate